Time;durP1;ratioP1;P1;durP2;ratioP2;P2;SDS_P1;SDS_P2;PMS_P1;PMS_P2;Temp;Humidity;BMP_temperature;BMP_pressure;BME280_temperature;BME280_humidity;BME280_pressure;Samples;Min_cycle;Max_cycle;Signal;HPM_P1;HPM_P2
2024/05/01 00:00:29;;;;;;;0.15;0.15;;;;;;;;;;5445682;26;20442;-78
2024/05/01 00:02:55;;;;;;;0.00;0.00;;;;;;;;;;5446991;26;20011;-80
2024/05/01 00:05:35;;;;;;;0.03;0.03;;;;;;;;;;5449156;26;19999;-81
2024/05/01 00:08:03;;;;;;;0.10;0.10;;;;;;;;;;5446744;26;20007;-80
2024/05/01 00:10:48;;;;;;;0.30;0.30;;;;;;;;;;5444730;26;20010;-80
2024/05/01 00:16:39;;;;;;;0.57;0.10;;;;;;;;;;5442475;26;19995;-82
2024/05/01 00:19:47;;;;;;;0.00;0.00;;;;;;;;;;5445159;26;20010;-81
2024/05/01 00:22:34;;;;;;;0.10;0.10;;;;;;;;;;5443393;26;20020;-83
2024/05/01 00:25:06;;;;;;;0.03;0.03;;;;;;;;;;5436728;26;20015;-82
2024/05/01 00:27:53;;;;;;;0.20;0.10;;;;;;;;;;5410486;26;20014;-83
2024/05/01 00:37:44;;;;;;;0.00;0.00;;;;;;;;;;5409025;26;20014;-81
2024/05/01 00:40:32;;;;;;;0.05;0.05;;;;;;;;;;5439111;26;20495;-85
2024/05/01 00:43:14;;;;;;;0.17;0.17;;;;;;;;;;5384528;26;20010;-82
2024/05/01 00:46:13;;;;;;;0.00;0.00;;;;;;;;;;5380862;26;20011;-82
2024/05/01 00:48:55;;;;;;;0.00;0.00;;;;;;;;;;5411262;26;20061;-80
2024/05/01 00:51:23;;;;;;;0.00;0.00;;;;;;;;;;5412740;26;20014;-82
2024/05/01 00:53:54;;;;;;;0.00;0.00;;;;;;;;;;5410630;26;19993;-83
2024/05/01 00:56:47;;;;;;;0.03;0.03;;;;;;;;;;5412499;26;20011;-83
2024/05/01 00:59:26;;;;;;;0.10;0.10;;;;;;;;;;5412384;26;20014;-82
2024/05/01 01:02:01;;;;;;;0.20;0.20;;;;;;;;;;5409469;26;20010;-84
2024/05/01 01:04:27;;;;;;;0.10;0.10;;;;;;;;;;5413454;26;20019;-81
2024/05/01 01:07:25;;;;;;;0.15;0.15;;;;;;;;;;5410272;26;20011;-82
2024/05/01 01:10:01;;;;;;;0.20;0.20;;;;;;;;;;5411653;26;19999;-82
2024/05/01 01:12:26;;;;;;;0.20;0.20;;;;;;;;;;5409951;26;20031;-84
2024/05/01 01:15:06;;;;;;;0.43;0.22;;;;;;;;;;5409346;26;20397;-81
2024/05/01 01:17:34;;;;;;;0.30;0.13;;;;;;;;;;5407996;26;20013;-80
2024/05/01 01:20:12;;;;;;;0.38;0.20;;;;;;;;;;5410386;26;20036;-80
2024/05/01 01:22:42;;;;;;;0.55;0.30;;;;;;;;;;5433598;26;19995;-81
2024/05/01 01:25:29;;;;;;;0.47;0.17;;;;;;;;;;5415744;26;19996;-81
2024/05/01 01:27:55;;;;;;;0.10;0.10;;;;;;;;;;5414032;26;20028;-81
2024/05/01 01:30:20;;;;;;;0.20;0.20;;;;;;;;;;5418243;26;19996;-80
2024/05/01 01:32:49;;;;;;;0.20;0.20;;;;;;;;;;5401055;26;20008;-82
2024/05/01 01:35:38;;;;;;;0.45;0.22;;;;;;;;;;5420595;26;19995;-78
2024/05/01 01:38:10;;;;;;;0.30;0.27;;;;;;;;;;5429859;26;20013;-79
2024/05/01 01:40:38;;;;;;;0.17;0.17;;;;;;;;;;5418055;26;20004;-80
2024/05/01 01:43:12;;;;;;;0.10;0.10;;;;;;;;;;5421741;26;20006;-81
2024/05/01 01:45:40;;;;;;;0.43;0.22;;;;;;;;;;5421120;26;19999;-81
2024/05/01 01:48:06;;;;;;;0.38;0.38;;;;;;;;;;5424907;26;20010;-80
2024/05/01 01:50:52;;;;;;;0.43;0.32;;;;;;;;;;5421313;26;20101;-80
2024/05/01 01:53:44;;;;;;;0.35;0.35;;;;;;;;;;5419299;26;19996;-83
2024/05/01 01:56:25;;;;;;;0.17;0.10;;;;;;;;;;5422345;26;20011;-79
2024/05/01 02:01:42;;;;;;;0.47;0.47;;;;;;;;;;5402329;26;20010;-81
2024/05/01 02:04:52;;;;;;;0.30;0.30;;;;;;;;;;5422626;26;19999;-82
2024/05/01 02:07:49;;;;;;;;;;;;;;;;;;;;;
2024/05/01 02:10:37;;;;;;;0.32;0.32;;;;;;;;;;5312274;26;20002;-82
2024/05/01 02:13:35;;;;;;;0.10;0.10;;;;;;;;;;5415852;26;20022;-82
2024/05/01 02:16:13;;;;;;;0.38;0.38;;;;;;;;;;5423728;26;20072;-81
2024/05/01 02:18:51;;;;;;;0.30;0.30;;;;;;;;;;5422860;26;20340;-81
2024/05/01 02:28:21;;;;;;;;;;;;;;;;;;;;;
2024/05/01 02:30:51;;;;;;;0.20;0.20;;;;;;;;;;5484453;26;19998;-79
2024/05/01 02:33:27;;;;;;;0.40;0.40;;;;;;;;;;5484949;26;20030;-85
2024/05/01 02:36:09;;;;;;;1.35;0.60;;;;;;;;;;5453633;26;20002;-80
2024/05/01 02:41:34;;;;;;;0.75;0.40;;;;;;;;;;5479049;26;20524;-80
2024/05/01 02:44:12;;;;;;;0.30;0.30;;;;;;;;;;5453606;26;20391;-81
2024/05/01 02:46:50;;;;;;;0.20;0.20;;;;;;;;;;5452765;26;20103;-80
2024/05/01 02:49:36;;;;;;;0.13;0.13;;;;;;;;;;5452299;26;20395;-82
2024/05/01 02:52:16;;;;;;;0.52;0.45;;;;;;;;;;5450134;26;20092;-80
2024/05/01 02:55:07;;;;;;;0.10;0.10;;;;;;;;;;5484843;26;20462;-80
2024/05/01 02:58:00;;;;;;;0.20;0.20;;;;;;;;;;5451122;26;20009;-81
2024/05/01 03:00:36;;;;;;;1.13;0.45;;;;;;;;;;5483325;26;20510;-83
2024/05/01 03:03:33;;;;;;;0.40;0.40;;;;;;;;;;5481973;26;20006;-82
2024/05/01 03:06:55;;;;;;;0.32;0.32;;;;;;;;;;5450930;26;20099;-82
2024/05/01 03:09:32;;;;;;;0.32;0.32;;;;;;;;;;5447439;26;19994;-80
2024/05/01 03:12:07;;;;;;;2.25;0.50;;;;;;;;;;5449198;26;20009;-82
2024/05/01 03:14:38;;;;;;;0.85;0.50;;;;;;;;;;5483132;26;20002;-80
2024/05/01 03:17:21;;;;;;;;;;;;;;;;;;;;;
2024/05/01 03:19:50;;;;;;;0.45;0.40;;;;;;;;;;5481945;26;20002;-80
2024/05/01 03:25:28;;;;;;;1.33;0.65;;;;;;;;;;5485190;26;20047;-80
2024/05/01 03:28:57;;;;;;;0.93;0.83;;;;;;;;;;5482762;26;20013;-82
2024/05/01 03:31:42;;;;;;;0.20;0.20;;;;;;;;;;5483265;26;20010;-81
2024/05/01 03:34:28;;;;;;;0.25;0.25;;;;;;;;;;5447658;26;20005;-78
2024/05/01 03:37:17;;;;;;;0.22;0.22;;;;;;;;;;5481630;26;19998;-79
2024/05/01 03:39:57;;;;;;;0.52;0.40;;;;;;;;;;5450724;26;19998;-81
2024/05/01 03:42:37;;;;;;;1.05;0.60;;;;;;;;;;5482669;26;20002;-80
2024/05/01 03:45:11;;;;;;;0.55;0.30;;;;;;;;;;5477707;26;20013;-80
2024/05/01 03:47:52;;;;;;;0.85;0.85;;;;;;;;;;5449936;26;19998;-81
2024/05/01 03:50:29;;;;;;;0.40;0.30;;;;;;;;;;5450957;26;19998;-81
2024/05/01 03:57:00;;;;;;;0.30;0.30;;;;;;;;;;5326609;26;19998;-80
2024/05/01 03:59:46;;;;;;;0.32;0.20;;;;;;;;;;5483236;26;20013;-82
2024/05/01 04:02:30;;;;;;;;;;;;;;;;;;;;;
2024/05/01 04:05:08;;;;;;;1.05;0.40;;;;;;;;;;5480999;26;20327;-81
2024/05/01 04:08:03;;;;;;;0.55;0.55;;;;;;;;;;5452544;26;20322;-80
2024/05/01 04:10:46;;;;;;;1.88;0.40;;;;;;;;;;5480866;26;19998;-80
2024/05/01 04:13:12;;;;;;;5.18;0.60;;;;;;;;;;5444406;26;20043;-82
2024/05/01 04:15:47;;;;;;;0.82;0.70;;;;;;;;;;5453356;26;20033;-79
2024/05/01 04:18:26;;;;;;;0.30;0.30;;;;;;;;;;5450158;26;20458;-81
2024/05/01 04:21:13;;;;;;;0.60;0.35;;;;;;;;;;5423119;26;19994;-82
2024/05/01 04:23:38;;;;;;;0.47;0.45;;;;;;;;;;5487221;26;20027;-80
2024/05/01 04:26:26;;;;;;;;;;;;;;;;;;;;;
2024/05/01 04:29:15;;;;;;;6.93;0.50;;;;;;;;;;5483800;26;20013;-81
2024/05/01 04:31:51;;;;;;;0.28;0.28;;;;;;;;;;5484559;26;20017;-80
2024/05/01 04:34:25;;;;;;;0.30;0.30;;;;;;;;;;5452642;26;20346;-79
2024/05/01 04:36:58;;;;;;;0.20;0.20;;;;;;;;;;5482602;26;20009;-79
2024/05/01 04:39:24;;;;;;;0.38;0.30;;;;;;;;;;5452913;26;20012;-79
2024/05/01 04:41:52;;;;;;;1.58;0.60;;;;;;;;;;5485109;26;20337;-80
2024/05/01 04:44:20;;;;;;;0.20;0.20;;;;;;;;;;5450972;26;20006;-78
2024/05/01 04:47:01;;;;;;;;;;;;;;;;;;;;;
2024/05/01 04:50:16;;;;;;;2.10;0.43;;;;;;;;;;5482088;26;19998;-80
2024/05/01 04:52:44;;;;;;;1.48;0.52;;;;;;;;;;5452062;26;20009;-81
2024/05/01 04:55:22;;;;;;;0.32;0.32;;;;;;;;;;5453968;26;20016;-81
2024/05/01 04:57:47;;;;;;;0.70;0.57;;;;;;;;;;5450420;26;20490;-79
2024/05/01 05:00:13;;;;;;;0.88;0.50;;;;;;;;;;5485609;26;20002;-78
2024/05/01 05:02:38;;;;;;;0.40;0.40;;;;;;;;;;5456030;26;19998;-79
2024/05/01 05:05:03;;;;;;;0.20;0.20;;;;;;;;;;5483822;26;19997;-80
2024/05/01 05:07:29;;;;;;;0.38;0.38;;;;;;;;;;5481733;26;20136;-79
2024/05/01 05:09:54;;;;;;;0.25;0.15;;;;;;;;;;5484939;26;20073;-78
2024/05/01 05:12:19;;;;;;;0.50;0.40;;;;;;;;;;5450656;26;20002;-77
2024/05/01 05:14:45;;;;;;;0.30;0.30;;;;;;;;;;5485420;26;20002;-81
2024/05/01 05:17:11;;;;;;;5.35;0.75;;;;;;;;;;5454120;26;20089;-79
2024/05/01 05:19:36;;;;;;;0.30;0.30;;;;;;;;;;5486372;26;20001;-80
2024/05/01 05:22:02;;;;;;;0.40;0.40;;;;;;;;;;5482533;26;20011;-82
2024/05/01 05:24:27;;;;;;;0.30;0.30;;;;;;;;;;5491318;26;19996;-80
2024/05/01 05:26:53;;;;;;;0.32;0.30;;;;;;;;;;5456480;26;20046;-81
2024/05/01 05:29:18;;;;;;;0.40;0.40;;;;;;;;;;5453712;26;19995;-81
2024/05/01 05:31:44;;;;;;;0.63;0.63;;;;;;;;;;5486248;26;20039;-81
2024/05/01 05:34:10;;;;;;;0.90;0.60;;;;;;;;;;5486294;26;20344;-80
2024/05/01 05:36:36;;;;;;;0.20;0.20;;;;;;;;;;5482694;26;20013;-78
2024/05/01 05:39:05;;;;;;;0.40;0.32;;;;;;;;;;5454011;26;20010;-79
2024/05/01 05:41:31;;;;;;;0.50;0.50;;;;;;;;;;5485797;26;20080;-83
2024/05/01 05:43:56;;;;;;;1.67;0.85;;;;;;;;;;5454364;26;20001;-78
2024/05/01 05:46:22;;;;;;;0.50;0.50;;;;;;;;;;5455646;26;20013;-78
2024/05/01 05:48:47;;;;;;;0.63;0.43;;;;;;;;;;5455059;26;20120;-80
2024/05/01 05:51:13;;;;;;;0.68;0.63;;;;;;;;;;5484962;26;20010;-82
2024/05/01 05:53:41;;;;;;;0.93;0.63;;;;;;;;;;5481694;26;20013;-79
2024/05/01 05:56:07;;;;;;;0.50;0.50;;;;;;;;;;5453197;26;20059;-79
2024/05/01 05:58:32;;;;;;;1.10;0.50;;;;;;;;;;5481548;26;20042;-77
2024/05/01 06:00:58;;;;;;;0.40;0.40;;;;;;;;;;5472611;26;20014;-78
2024/05/01 06:03:23;;;;;;;0.73;0.68;;;;;;;;;;5469696;26;20002;-80
2024/05/01 06:05:48;;;;;;;1.23;0.68;;;;;;;;;;5464286;26;20042;-79
2024/05/01 06:08:14;;;;;;;0.73;0.43;;;;;;;;;;5457519;26;20120;-78
2024/05/01 06:10:39;;;;;;;3.08;0.90;;;;;;;;;;5476020;26;20087;-78
2024/05/01 06:13:12;;;;;;;0.55;0.30;;;;;;;;;;5466575;26;19998;-77
2024/05/01 06:15:38;;;;;;;3.28;0.65;;;;;;;;;;5464936;26;20392;-78
2024/05/01 06:18:03;;;;;;;1.08;0.68;;;;;;;;;;5440458;26;20082;-80
2024/05/01 06:20:29;;;;;;;1.08;0.55;;;;;;;;;;5441796;26;20023;-78
2024/05/01 06:22:55;;;;;;;1.60;0.50;;;;;;;;;;5439281;26;20021;-76
2024/05/01 06:25:20;;;;;;;1.13;0.43;;;;;;;;;;5439835;26;20010;-77
2024/05/01 06:27:46;;;;;;;0.90;0.85;;;;;;;;;;5436156;26;20021;-79
2024/05/01 06:30:11;;;;;;;3.83;1.05;;;;;;;;;;5437273;26;20020;-77
2024/05/01 06:32:37;;;;;;;3.40;0.73;;;;;;;;;;5480915;26;20016;-79
2024/05/01 06:35:02;;;;;;;0.43;0.40;;;;;;;;;;5473076;26;20025;-81
2024/05/01 06:37:28;;;;;;;2.08;0.73;;;;;;;;;;5469034;26;20458;-79
2024/05/01 06:39:53;;;;;;;1.95;0.70;;;;;;;;;;5440362;26;20563;-77
2024/05/01 06:42:19;;;;;;;0.45;0.40;;;;;;;;;;5483754;26;19998;-79
2024/05/01 06:44:44;;;;;;;5.97;0.68;;;;;;;;;;5482865;26;19998;-80
2024/05/01 06:47:09;;;;;;;0.40;0.40;;;;;;;;;;5451663;26;20013;-80
2024/05/01 06:49:35;;;;;;;0.43;0.43;;;;;;;;;;5451658;26;20033;-77
2024/05/01 06:52:00;;;;;;;0.50;0.47;;;;;;;;;;5452120;26;19998;-80
2024/05/01 06:54:25;;;;;;;22.83;3.78;;;;;;;;;;5478320;26;20342;-78
2024/05/01 06:56:51;;;;;;;4.47;1.58;;;;;;;;;;5483895;26;19995;-79
2024/05/01 06:59:16;;;;;;;2.22;1.38;;;;;;;;;;5453269;26;19998;-80
2024/05/01 07:01:42;;;;;;;1.00;0.70;;;;;;;;;;5484620;26;20002;-79
2024/05/01 07:04:07;;;;;;;0.20;0.20;;;;;;;;;;5484829;26;20073;-80
2024/05/01 07:06:37;;;;;;;0.82;0.75;;;;;;;;;;5483965;26;19994;-77
2024/05/01 07:09:02;;;;;;;;;;;;;;;;;;5485979;26;20010;-77
2024/05/01 07:11:28;;;;;;;0.68;0.60;;;;;;;;;;5450698;26;20371;-79
2024/05/01 07:13:53;;;;;;;1.33;0.55;;;;;;;;;;5477294;26;19999;-78
2024/05/01 07:16:18;;;;;;;0.73;0.50;;;;;;;;;;5480175;26;20022;-78
2024/05/01 07:18:44;;;;;;;0.30;0.30;;;;;;;;;;5451695;26;20075;-77
2024/05/01 07:21:09;;;;;;;0.45;0.45;;;;;;;;;;5483208;26;20104;-78
2024/05/01 07:23:35;;;;;;;0.73;0.73;;;;;;;;;;5448407;26;20001;-76
2024/05/01 07:26:00;;;;;;;0.20;0.20;;;;;;;;;;5452579;26;20570;-80
2024/05/01 07:28:25;;;;;;;1.38;0.80;;;;;;;;;;5451777;26;19999;-78
2024/05/01 07:30:51;;;;;;;0.70;0.70;;;;;;;;;;5452891;26;20013;-77
2024/05/01 07:33:19;;;;;;;1.10;0.60;;;;;;;;;;5479422;26;20016;-80
2024/05/01 07:35:45;;;;;;;0.60;0.50;;;;;;;;;;5452934;26;20092;-80
2024/05/01 07:38:10;;;;;;;4.53;1.30;;;;;;;;;;5484285;26;20467;-79
2024/05/01 07:40:39;;;;;;;0.30;0.30;;;;;;;;;;5484773;26;20002;-77
2024/05/01 07:43:09;;;;;;;1.03;0.73;;;;;;;;;;5452810;26;20052;-77
2024/05/01 07:45:34;;;;;;;0.50;0.50;;;;;;;;;;5451834;26;20070;-77
2024/05/01 07:48:00;;;;;;;0.40;0.40;;;;;;;;;;5482701;26;20001;-78
2024/05/01 07:50:26;;;;;;;0.30;0.30;;;;;;;;;;5453177;26;20087;-79
2024/05/01 07:52:51;;;;;;;4.70;0.80;;;;;;;;;;5485558;26;19990;-78
2024/05/01 07:55:16;;;;;;;0.32;0.28;;;;;;;;;;5452770;26;20318;-79
2024/05/01 07:57:42;;;;;;;0.52;0.52;;;;;;;;;;5485544;26;20002;-79
2024/05/01 08:00:09;;;;;;;0.90;0.40;;;;;;;;;;5450438;26;20004;-78
2024/05/01 08:02:35;;;;;;;0.95;0.60;;;;;;;;;;5484631;26;20473;-79
2024/05/01 08:05:01;;;;;;;0.35;0.35;;;;;;;;;;5451895;26;20006;-80
2024/05/01 08:07:26;;;;;;;0.82;0.43;;;;;;;;;;5485247;26;20002;-79
2024/05/01 08:09:52;;;;;;;1.05;0.80;;;;;;;;;;5485414;26;20468;-77
2024/05/01 08:12:17;;;;;;;0.32;0.32;;;;;;;;;;5450449;26;20078;-78
2024/05/01 08:14:42;;;;;;;0.40;0.40;;;;;;;;;;5480284;26;20010;-79
2024/05/01 08:17:08;;;;;;;3.45;0.50;;;;;;;;;;5452199;26;20065;-79
2024/05/01 08:19:33;;;;;;;0.40;0.40;;;;;;;;;;5452895;26;20013;-79
2024/05/01 08:22:00;;;;;;;0.40;0.40;;;;;;;;;;5450350;26;19998;-78
2024/05/01 08:24:25;;;;;;;0.55;0.35;;;;;;;;;;5482583;26;19998;-78
2024/05/01 08:26:51;;;;;;;0.50;0.05;;;;;;;;;;5484574;26;20453;-79
2024/05/01 08:29:18;;;;;;;0.50;0.43;;;;;;;;;;5483623;26;20457;-79
2024/05/01 08:31:43;;;;;;;0.50;0.50;;;;;;;;;;5448573;26;19998;-76
2024/05/01 08:34:09;;;;;;;2.72;0.60;;;;;;;;;;5451821;26;20016;-79
2024/05/01 08:36:34;;;;;;;0.45;0.40;;;;;;;;;;5449956;26;20446;-79
2024/05/01 08:38:59;;;;;;;0.43;0.43;;;;;;;;;;5449679;26;19998;-81
2024/05/01 08:41:27;;;;;;;1.08;0.65;;;;;;;;;;5452251;26;20074;-78
2024/05/01 08:43:53;;;;;;;0.40;0.30;;;;;;;;;;5482724;26;19998;-78
2024/05/01 08:46:19;;;;;;;8.50;0.57;;;;;;;;;;5450214;26;20442;-79
2024/05/01 08:48:48;;;;;;;3.65;0.68;;;;;;;;;;5450336;26;20334;-79
2024/05/01 08:51:15;;;;;;;2.40;0.50;;;;;;;;;;5448402;26;20435;-79
2024/05/01 08:53:42;;;;;;;0.57;0.50;;;;;;;;;;5483719;26;20001;-79
2024/05/01 08:56:09;;;;;;;0.40;0.40;;;;;;;;;;5483486;26;19998;-77
2024/05/01 08:58:36;;;;;;;0.65;0.52;;;;;;;;;;5451850;26;20540;-79
2024/05/01 09:01:07;;;;;;;1.70;0.70;;;;;;;;;;5479776;26;20075;-78
2024/05/01 09:03:33;;;;;;;0.45;0.45;;;;;;;;;;5448009;26;20101;-78
2024/05/01 09:05:58;;;;;;;0.70;0.47;;;;;;;;;;5452167;26;20019;-79
2024/05/01 09:08:24;;;;;;;1.13;0.60;;;;;;;;;;5451713;26;20430;-80
2024/05/01 09:11:03;;;;;;;0.55;0.38;;;;;;;;;;5448590;26;20331;-78
2024/05/01 09:13:28;;;;;;;0.20;0.20;;;;;;;;;;5443578;26;20890;-79
2024/05/01 09:16:03;;;;;;;0.65;0.47;;;;;;;;;;5481528;26;19998;-79
2024/05/01 09:18:28;;;;;;;0.52;0.47;;;;;;;;;;5449147;26;20038;-80
2024/05/01 09:20:57;;;;;;;0.43;0.40;;;;;;;;;;5479477;26;19999;-77
2024/05/01 09:23:24;;;;;;;1.05;0.40;;;;;;;;;;5449053;26;19994;-79
2024/05/01 09:25:49;;;;;;;1.00;0.75;;;;;;;;;;5449180;26;20002;-80
2024/05/01 09:28:15;;;;;;;0.50;0.50;;;;;;;;;;5450475;26;20021;-79
2024/05/01 09:30:44;;;;;;;0.30;0.30;;;;;;;;;;5450057;26;20008;-79
2024/05/01 09:33:10;;;;;;;2.43;0.70;;;;;;;;;;5448674;26;20026;-78
2024/05/01 09:35:35;;;;;;;0.17;0.17;;;;;;;;;;5449222;26;20231;-79
2024/05/01 09:38:11;;;;;;;1.30;0.63;;;;;;;;;;5450134;26;19998;-80
2024/05/01 09:40:38;;;;;;;0.52;0.30;;;;;;;;;;5482111;26;20012;-78
2024/05/01 09:43:14;;;;;;;0.75;0.60;;;;;;;;;;5448369;26;20009;-79
2024/05/01 09:45:43;;;;;;;0.20;0.20;;;;;;;;;;5449246;26;20046;-78
2024/05/01 09:48:10;;;;;;;0.30;0.22;;;;;;;;;;5477652;26;20013;-79
2024/05/01 09:50:36;;;;;;;1.75;0.50;;;;;;;;;;5475742;26;20009;-79
2024/05/01 09:53:03;;;;;;;0.13;0.13;;;;;;;;;;5449403;26;20491;-78
2024/05/01 09:55:31;;;;;;;0.30;0.20;;;;;;;;;;5450973;26;19998;-80
2024/05/01 09:57:58;;;;;;;0.15;0.15;;;;;;;;;;5450909;26;20450;-80
2024/05/01 10:00:24;;;;;;;1.95;0.43;;;;;;;;;;5448948;26;20022;-76
2024/05/01 10:02:57;;;;;;;0.15;0.15;;;;;;;;;;5451814;26;20826;-78
2024/05/01 10:05:24;;;;;;;0.15;0.15;;;;;;;;;;5452236;26;20017;-76
2024/05/01 10:07:54;;;;;;;0.35;0.25;;;;;;;;;;5452971;26;19998;-79
2024/05/01 10:10:34;;;;;;;0.47;0.43;;;;;;;;;;5453453;26;20371;-80
2024/05/01 10:13:06;;;;;;;;;;;;;;;;;;5453269;26;20013;-79
2024/05/01 10:16:07;;;;;;;0.40;0.30;;;;;;;;;;5484048;26;19924;-81
2024/05/01 10:19:05;;;;;;;0.10;0.10;;;;;;;;;;5485081;26;19998;-81
2024/05/01 11:45:40;;;;;;;;;;;;;;;;;;5431721;26;20030;-82
2024/05/01 11:48:06;;;;;;;0.28;0.28;;;;;;;;;;5419080;26;19924;-80
2024/05/01 11:50:31;;;;;;;0.38;0.38;;;;;;;;;;5446872;26;20435;-82
2024/05/01 11:52:57;;;;;;;0.98;0.60;;;;;;;;;;5397896;26;19995;-81
2024/05/01 11:55:29;;;;;;;0.55;0.32;;;;;;;;;;5407413;26;20014;-82
2024/05/01 11:58:07;;;;;;;0.45;0.45;;;;;;;;;;5413246;26;20013;-79
2024/05/01 12:00:33;;;;;;;0.40;0.40;;;;;;;;;;5467737;26;20003;-79
2024/05/01 12:03:00;;;;;;;0.55;0.55;;;;;;;;;;5445401;26;20017;-78
2024/05/01 12:05:25;;;;;;;0.40;0.40;;;;;;;;;;5415548;26;20897;-82
2024/05/01 12:07:51;;;;;;;0.70;0.50;;;;;;;;;;5446813;26;20002;-81
2024/05/01 12:10:16;;;;;;;0.57;0.57;;;;;;;;;;5413809;26;20006;-80
2024/05/01 12:12:44;;;;;;;0.47;0.38;;;;;;;;;;5446965;26;19998;-78
2024/05/01 12:15:09;;;;;;;0.55;0.45;;;;;;;;;;5415901;26;20088;-78
2024/05/01 12:17:35;;;;;;;0.75;0.63;;;;;;;;;;5445851;26;20326;-79
2024/05/01 12:20:00;;;;;;;0.55;0.40;;;;;;;;;;5404894;26;19996;-81
2024/05/01 12:22:25;;;;;;;0.40;0.40;;;;;;;;;;5433253;26;20003;-77
2024/05/01 12:24:51;;;;;;;3.97;0.60;;;;;;;;;;5409097;26;20313;-78
2024/05/01 12:27:17;;;;;;;0.40;0.30;;;;;;;;;;5398443;26;20003;-80
2024/05/01 12:29:44;;;;;;;0.52;0.45;;;;;;;;;;5448730;26;20013;-78
2024/05/01 12:32:37;;;;;;;0.57;0.45;;;;;;;;;;5404674;26;20003;-81
2024/05/01 12:35:43;;;;;;;1.10;0.50;;;;;;;;;;5403975;26;20015;-78
2024/05/01 12:38:12;;;;;;;0.52;0.40;;;;;;;;;;5377355;26;20006;-79
2024/05/01 12:41:03;;;;;;;0.60;0.45;;;;;;;;;;5446071;26;19999;-78
2024/05/01 12:43:30;;;;;;;0.38;0.35;;;;;;;;;;5415438;26;20010;-79
2024/05/01 12:45:55;;;;;;;0.45;0.35;;;;;;;;;;5384742;26;20394;-80
2024/05/01 12:48:23;;;;;;;3.78;0.93;;;;;;;;;;5411285;26;20014;-79
2024/05/01 12:50:50;;;;;;;0.40;0.40;;;;;;;;;;5378543;26;20000;-81
2024/05/01 12:53:33;;;;;;;1.70;0.50;;;;;;;;;;5380084;26;20012;-77
2024/05/01 12:56:00;;;;;;;0.47;0.47;;;;;;;;;;5379671;26;20007;-80
2024/05/01 12:58:42;;;;;;;0.90;0.50;;;;;;;;;;5405560;26;20004;-80
2024/05/01 13:01:12;;;;;;;0.52;0.32;;;;;;;;;;5408130;26;20401;-77
2024/05/01 13:03:38;;;;;;;;;;;;;;;;;;5411555;26;20003;-80
2024/05/01 13:06:04;;;;;;;1.70;0.40;;;;;;;;;;5409275;26;19932;-81
2024/05/01 13:08:30;;;;;;;0.57;0.52;;;;;;;;;;5410574;26;20312;-79
2024/05/01 13:11:01;;;;;;;0.32;0.30;;;;;;;;;;5378118;26;20006;-78
2024/05/01 13:13:37;;;;;;;0.98;0.80;;;;;;;;;;5409411;26;20044;-80
2024/05/01 13:16:33;;;;;;;0.50;0.43;;;;;;;;;;5410279;26;20439;-81
2024/05/01 13:19:08;;;;;;;0.50;0.47;;;;;;;;;;5382708;26;20022;-79
2024/05/01 13:21:33;;;;;;;0.55;0.50;;;;;;;;;;5409327;26;20022;-82
2024/05/01 13:23:59;;;;;;;0.60;0.40;;;;;;;;;;5378077;26;19999;-78
2024/05/01 13:26:29;;;;;;;0.60;0.60;;;;;;;;;;5410772;26;20497;-79
2024/05/01 13:28:54;;;;;;;0.50;0.50;;;;;;;;;;5379403;26;19999;-80
2024/05/01 13:31:21;;;;;;;0.65;0.60;;;;;;;;;;5409511;26;20455;-79
2024/05/01 13:33:56;;;;;;;1.10;0.70;;;;;;;;;;5409506;26;20339;-79
2024/05/01 13:36:29;;;;;;;1.38;0.55;;;;;;;;;;5408617;26;20004;-78
2024/05/01 13:39:27;;;;;;;0.70;0.60;;;;;;;;;;5408937;26;19996;-80
2024/05/01 13:41:52;;;;;;;2.10;0.50;;;;;;;;;;5410502;26;20047;-80
2024/05/01 13:44:21;;;;;;;0.77;0.63;;;;;;;;;;5378524;26;20000;-79
2024/05/01 13:46:50;;;;;;;0.52;0.43;;;;;;;;;;5412941;26;20003;-77
2024/05/01 13:49:27;;;;;;;0.90;0.60;;;;;;;;;;5445831;26;20021;-78
2024/05/01 13:51:53;;;;;;;0.77;0.60;;;;;;;;;;5441519;26;20010;-78
2024/05/01 13:54:36;;;;;;;0.40;0.40;;;;;;;;;;5414790;26;20019;-79
2024/05/01 13:57:18;;;;;;;0.65;0.45;;;;;;;;;;5412458;26;20427;-79
2024/05/01 13:59:55;;;;;;;0.43;0.35;;;;;;;;;;5442666;26;20014;-80
2024/05/01 14:02:26;;;;;;;0.65;0.60;;;;;;;;;;5444765;26;19999;-79
2024/05/01 14:04:52;;;;;;;0.80;0.60;;;;;;;;;;5443644;26;20010;-78
2024/05/01 14:07:21;;;;;;;0.60;0.60;;;;;;;;;;5444098;26;20467;-81
2024/05/01 14:09:47;;;;;;;1.38;0.80;;;;;;;;;;5446449;26;19998;-79
2024/05/01 14:12:12;;;;;;;0.63;0.50;;;;;;;;;;5444077;26;20009;-79
2024/05/01 14:14:41;;;;;;;0.88;0.68;;;;;;;;;;5414299;26;20009;-79
2024/05/01 14:17:19;;;;;;;0.98;0.60;;;;;;;;;;5414556;26;20011;-78
2024/05/01 14:19:47;;;;;;;0.73;0.60;;;;;;;;;;5443868;26;20086;-78
2024/05/01 14:22:15;;;;;;;0.50;0.50;;;;;;;;;;5411668;26;20003;-80
2024/05/01 14:24:41;;;;;;;1.00;0.52;;;;;;;;;;5443244;26;20021;-79
2024/05/01 14:27:27;;;;;;;0.43;0.43;;;;;;;;;;5413392;26;19999;-79
2024/05/01 14:29:53;;;;;;;0.90;0.52;;;;;;;;;;5413122;26;20443;-80
2024/05/01 14:32:24;;;;;;;0.88;0.60;;;;;;;;;;5413426;26;20014;-78
2024/05/01 14:35:07;;;;;;;0.55;0.55;;;;;;;;;;5446071;26;20006;-78
2024/05/01 14:37:35;;;;;;;1.00;0.88;;;;;;;;;;5413231;26;20010;-80
2024/05/01 14:40:26;;;;;;;0.50;0.40;;;;;;;;;;5444851;26;19998;-80
2024/05/01 14:42:57;;;;;;;0.40;0.40;;;;;;;;;;5410812;26;20028;-79
2024/05/01 14:45:34;;;;;;;2.10;0.60;;;;;;;;;;5403140;26;20011;-79
2024/05/01 14:48:15;;;;;;;1.80;0.50;;;;;;;;;;5419173;26;20347;-78
2024/05/01 14:50:41;;;;;;;1.35;0.68;;;;;;;;;;5380568;26;20011;-79
2024/05/01 14:53:09;;;;;;;0.95;0.70;;;;;;;;;;5426621;26;19996;-78
2024/05/01 14:55:36;;;;;;;0.80;0.70;;;;;;;;;;5432894;26;20002;-79
2024/05/01 14:58:03;;;;;;;0.32;0.32;;;;;;;;;;5423019;26;20915;-79
2024/05/01 15:00:28;;;;;;;0.52;0.52;;;;;;;;;;5412909;26;20010;-78
2024/05/01 15:03:02;;;;;;;0.40;0.30;;;;;;;;;;5399200;26;20450;-80
2024/05/01 15:05:33;;;;;;;0.30;0.30;;;;;;;;;;5415972;26;20000;-81
2024/05/01 15:07:59;;;;;;;0.50;0.50;;;;;;;;;;5422544;26;20003;-77
2024/05/01 15:10:24;;;;;;;3.03;0.65;;;;;;;;;;5425149;26;20032;-78
2024/05/01 15:13:10;;;;;;;0.52;0.52;;;;;;;;;;5420611;26;19999;-81
2024/05/01 15:15:36;;;;;;;0.30;0.30;;;;;;;;;;5435927;26;20003;-81
2024/05/01 15:18:01;;;;;;;0.55;0.55;;;;;;;;;;5425984;26;20793;-80
2024/05/01 15:20:29;;;;;;;0.95;0.65;;;;;;;;;;5392144;26;20046;-81
2024/05/01 15:22:54;;;;;;;0.40;0.40;;;;;;;;;;5398738;26;20006;-81
2024/05/01 15:25:20;;;;;;;0.57;0.43;;;;;;;;;;5426886;26;20445;-79
2024/05/01 15:27:46;;;;;;;0.30;0.30;;;;;;;;;;5421056;26;20003;-80
2024/05/01 15:30:11;;;;;;;0.90;0.47;;;;;;;;;;5389834;26;20474;-78
2024/05/01 15:32:37;;;;;;;1.85;0.70;;;;;;;;;;5397548;26;20010;-80
2024/05/01 15:35:37;;;;;;;0.40;0.32;;;;;;;;;;5417187;26;20010;-79
2024/05/01 15:38:21;;;;;;;0.50;0.50;;;;;;;;;;5394725;26;21017;-80
2024/05/01 15:40:46;;;;;;;0.52;0.52;;;;;;;;;;5431952;26;19999;-80
2024/05/01 15:43:13;;;;;;;0.75;0.63;;;;;;;;;;5433452;26;20013;-80
2024/05/01 15:45:39;;;;;;;1.67;0.85;;;;;;;;;;5398427;26;20443;-80
2024/05/01 15:48:33;;;;;;;0.63;0.50;;;;;;;;;;5377343;26;20011;-78
2024/05/01 15:51:02;;;;;;;1.42;0.70;;;;;;;;;;5389296;26;20006;-80
2024/05/01 15:53:29;;;;;;;;;;;;;;;;;;5401198;26;20026;-76
2024/05/01 15:55:55;;;;;;;0.68;0.47;;;;;;;;;;5389667;26;20307;-80
2024/05/01 15:58:26;;;;;;;1.05;0.80;;;;;;;;;;5429621;26;20000;-79
2024/05/01 16:00:54;;;;;;;0.75;0.75;;;;;;;;;;5423836;26;20336;-81
2024/05/01 16:03:20;;;;;;;1.23;0.60;;;;;;;;;;5417139;26;20479;-79
2024/05/01 16:05:45;;;;;;;1.30;0.98;;;;;;;;;;5426353;26;20022;-78
2024/05/01 16:08:12;;;;;;;0.52;0.52;;;;;;;;;;5421443;26;19999;-80
2024/05/01 16:10:48;;;;;;;1.73;0.95;;;;;;;;;;5439194;26;20022;-79
2024/05/01 16:13:21;;;;;;;1.13;0.90;;;;;;;;;;5420261;26;20032;-78
2024/05/01 16:15:48;;;;;;;1.00;0.70;;;;;;;;;;5415079;26;20068;-80
2024/05/01 16:18:47;;;;;;;0.57;0.52;;;;;;;;;;5422262;26;20010;-78
2024/05/01 16:21:27;;;;;;;0.95;0.50;;;;;;;;;;5389236;26;20002;-78
2024/05/01 16:23:53;;;;;;;0.77;0.77;;;;;;;;;;5424947;26;20061;-80
2024/05/01 16:26:21;;;;;;;4.70;1.25;;;;;;;;;;5418150;26;19999;-79
2024/05/01 16:28:51;;;;;;;2.83;0.75;;;;;;;;;;5386240;26;20395;-81
2024/05/01 16:31:17;;;;;;;0.82;0.75;;;;;;;;;;5423912;26;20328;-82
2024/05/01 16:33:47;;;;;;;0.75;0.40;;;;;;;;;;5433686;26;20003;-79
2024/05/01 16:36:18;;;;;;;1.52;0.63;;;;;;;;;;5422035;26;20439;-79
2024/05/01 16:38:44;;;;;;;1.08;0.90;;;;;;;;;;5422411;26;20000;-81
2024/05/01 16:41:28;;;;;;;2.05;0.47;;;;;;;;;;5426456;26;19995;-78
2024/05/01 16:43:54;;;;;;;0.80;0.73;;;;;;;;;;5421208;26;20006;-80
2024/05/01 16:46:20;;;;;;;0.95;0.77;;;;;;;;;;5413171;26;20462;-80
2024/05/01 16:48:46;;;;;;;0.85;0.70;;;;;;;;;;5396625;26;20007;-83
2024/05/01 16:51:21;;;;;;;3.90;1.20;;;;;;;;;;5405916;26;20471;-79
2024/05/01 16:53:46;;;;;;;0.65;0.65;;;;;;;;;;5399950;26;20003;-79
2024/05/01 16:56:13;;;;;;;0.30;0.30;;;;;;;;;;5382299;26;20011;-80
2024/05/01 16:58:39;;;;;;;0.95;0.60;;;;;;;;;;5377846;26;19996;-78
2024/05/01 17:01:16;;;;;;;7.22;0.95;;;;;;;;;;5379429;26;20913;-79
2024/05/01 17:03:42;;;;;;;0.50;0.38;;;;;;;;;;5411984;26;20000;-79
2024/05/01 17:06:07;;;;;;;0.30;0.30;;;;;;;;;;5379887;26;20014;-80
2024/05/01 17:08:33;;;;;;;0.30;0.30;;;;;;;;;;5409285;26;20015;-81
2024/05/01 17:11:01;;;;;;;0.40;0.40;;;;;;;;;;5377221;26;19996;-79
2024/05/01 17:13:27;;;;;;;0.70;0.43;;;;;;;;;;5393890;26;20004;-81